sensor_id;sensor_type;location;lat;lon;timestamp;P1;durP1;ratioP1;P2;durP2;ratioP2
54977;SDS011;40873;47.522;19.106;2022-11-25T00:03:46;33.45;;;14.98;;
54977;SDS011;40873;47.522;19.106;2022-11-25T00:06:18;34.92;;;13.82;;
54977;SDS011;40873;47.522;19.106;2022-11-25T00:08:48;30.05;;;12.80;;
54977;SDS011;40873;47.522;19.106;2022-11-25T00:11:26;31.58;;;14.90;;
54977;SDS011;40873;47.522;19.106;2022-11-25T00:13:53;33.50;;;13.80;;
54977;SDS011;40873;47.522;19.106;2022-11-25T00:16:22;34.97;;;16.13;;
54977;SDS011;40873;47.522;19.106;2022-11-25T00:18:50;32.92;;;13.32;;
54977;SDS011;40873;47.522;19.106;2022-11-25T00:21:19;33.85;;;15.13;;
54977;SDS011;40873;47.522;19.106;2022-11-25T00:23:57;38.05;;;16.75;;
54977;SDS011;40873;47.522;19.106;2022-11-25T00:26:26;26.10;;;12.80;;
54977;SDS011;40873;47.522;19.106;2022-11-25T00:28:56;32.80;;;14.93;;
54977;SDS011;40873;47.522;19.106;2022-11-25T00:31:26;28.13;;;14.13;;
54977;SDS011;40873;47.522;19.106;2022-11-25T00:33:59;35.20;;;13.95;;
54977;SDS011;40873;47.522;19.106;2022-11-25T00:36:27;33.20;;;15.68;;
54977;SDS011;40873;47.522;19.106;2022-11-25T00:38:57;33.70;;;14.75;;
54977;SDS011;40873;47.522;19.106;2022-11-25T00:41:26;33.20;;;15.35;;
54977;SDS011;40873;47.522;19.106;2022-11-25T00:44:12;34.78;;;13.98;;
54977;SDS011;40873;47.522;19.106;2022-11-25T00:47:04;37.45;;;14.75;;
54977;SDS011;40873;47.522;19.106;2022-11-25T00:49:31;34.75;;;16.63;;
54977;SDS011;40873;47.522;19.106;2022-11-25T00:52:00;31.02;;;14.75;;
54977;SDS011;40873;47.522;19.106;2022-11-25T00:54:27;32.08;;;15.93;;
54977;SDS011;40873;47.522;19.106;2022-11-25T00:56:54;34.30;;;14.73;;
54977;SDS011;40873;47.522;19.106;2022-11-25T00:59:21;33.65;;;14.93;;
54977;SDS011;40873;47.522;19.106;2022-11-25T01:01:49;31.75;;;14.35;;
54977;SDS011;40873;47.522;19.106;2022-11-25T01:04:16;35.08;;;15.35;;
54977;SDS011;40873;47.522;19.106;2022-11-25T01:06:43;37.25;;;16.40;;
54977;SDS011;40873;47.522;19.106;2022-11-25T01:09:11;34.28;;;15.88;;
54977;SDS011;40873;47.522;19.106;2022-11-25T01:11:39;30.92;;;15.52;;
54977;SDS011;40873;47.522;19.106;2022-11-25T01:14:06;31.90;;;14.50;;
54977;SDS011;40873;47.522;19.106;2022-11-25T01:16:34;34.88;;;15.20;;
54977;SDS011;40873;47.522;19.106;2022-11-25T01:19:02;31.38;;;15.45;;
54977;SDS011;40873;47.522;19.106;2022-11-25T01:21:30;33.80;;;15.07;;
54977;SDS011;40873;47.522;19.106;2022-11-25T01:23:59;32.97;;;14.32;;
54977;SDS011;40873;47.522;19.106;2022-11-25T01:26:27;37.10;;;14.90;;
54977;SDS011;40873;47.522;19.106;2022-11-25T01:28:56;34.50;;;15.02;;
54977;SDS011;40873;47.522;19.106;2022-11-25T01:31:26;37.92;;;16.08;;
54977;SDS011;40873;47.522;19.106;2022-11-25T01:33:55;27.75;;;15.20;;
54977;SDS011;40873;47.522;19.106;2022-11-25T01:36:24;34.13;;;15.02;;
54977;SDS011;40873;47.522;19.106;2022-11-25T01:38:53;33.40;;;14.95;;
54977;SDS011;40873;47.522;19.106;2022-11-25T01:41:22;36.72;;;14.77;;
54977;SDS011;40873;47.522;19.106;2022-11-25T01:49:13;33.60;;;13.82;;
54977;SDS011;40873;47.522;19.106;2022-11-25T01:57:23;36.58;;;14.90;;
54977;SDS011;40873;47.522;19.106;2022-11-25T01:59:55;32.97;;;14.38;;
54977;SDS011;40873;47.522;19.106;2022-11-25T02:02:25;31.55;;;14.73;;
54977;SDS011;40873;47.522;19.106;2022-11-25T02:04:54;32.40;;;14.07;;
54977;SDS011;40873;47.522;19.106;2022-11-25T02:10:05;34.85;;;14.25;;
54977;SDS011;40873;47.522;19.106;2022-11-25T02:12:34;33.05;;;15.85;;
54977;SDS011;40873;47.522;19.106;2022-11-25T02:15:04;35.03;;;14.00;;
54977;SDS011;40873;47.522;19.106;2022-11-25T02:17:32;34.90;;;14.57;;
54977;SDS011;40873;47.522;19.106;2022-11-25T02:20:12;39.03;;;15.20;;
54977;SDS011;40873;47.522;19.106;2022-11-25T02:25:31;27.55;;;12.63;;
54977;SDS011;40873;47.522;19.106;2022-11-25T02:28:19;36.30;;;16.65;;
54977;SDS011;40873;47.522;19.106;2022-11-25T02:30:49;33.03;;;14.57;;
54977;SDS011;40873;47.522;19.106;2022-11-25T02:33:17;34.15;;;14.15;;
54977;SDS011;40873;47.522;19.106;2022-11-25T02:36:06;32.00;;;14.20;;
54977;SDS011;40873;47.522;19.106;2022-11-25T02:41:13;38.90;;;14.75;;
54977;SDS011;40873;47.522;19.106;2022-11-25T02:43:43;36.30;;;15.18;;
54977;SDS011;40873;47.522;19.106;2022-11-25T02:46:14;39.55;;;16.27;;
54977;SDS011;40873;47.522;19.106;2022-11-25T02:48:48;34.38;;;14.80;;
54977;SDS011;40873;47.522;19.106;2022-11-25T02:51:37;38.58;;;15.88;;
54977;SDS011;40873;47.522;19.106;2022-11-25T02:54:06;31.67;;;14.35;;
54977;SDS011;40873;47.522;19.106;2022-11-25T02:56:33;31.45;;;14.35;;
54977;SDS011;40873;47.522;19.106;2022-11-25T02:59:01;36.78;;;15.57;;
54977;SDS011;40873;47.522;19.106;2022-11-25T03:01:29;32.47;;;14.93;;
54977;SDS011;40873;47.522;19.106;2022-11-25T03:03:57;34.40;;;12.55;;
54977;SDS011;40873;47.522;19.106;2022-11-25T03:06:24;32.42;;;14.30;;
54977;SDS011;40873;47.522;19.106;2022-11-25T03:08:52;36.20;;;14.50;;
54977;SDS011;40873;47.522;19.106;2022-11-25T03:11:19;35.05;;;13.95;;
54977;SDS011;40873;47.522;19.106;2022-11-25T03:13:46;34.00;;;14.02;;
54977;SDS011;40873;47.522;19.106;2022-11-25T03:16:13;36.55;;;15.10;;
54977;SDS011;40873;47.522;19.106;2022-11-25T03:18:40;31.02;;;15.15;;
54977;SDS011;40873;47.522;19.106;2022-11-25T03:21:07;30.35;;;13.90;;
54977;SDS011;40873;47.522;19.106;2022-11-25T03:23:34;33.83;;;14.40;;
54977;SDS011;40873;47.522;19.106;2022-11-25T03:26:03;29.98;;;13.02;;
54977;SDS011;40873;47.522;19.106;2022-11-25T03:28:32;31.40;;;13.77;;
54977;SDS011;40873;47.522;19.106;2022-11-25T03:30:58;33.70;;;12.77;;
54977;SDS011;40873;47.522;19.106;2022-11-25T03:33:25;31.10;;;13.73;;
54977;SDS011;40873;47.522;19.106;2022-11-25T03:35:52;33.30;;;14.20;;
54977;SDS011;40873;47.522;19.106;2022-11-25T03:38:19;33.38;;;13.95;;
54977;SDS011;40873;47.522;19.106;2022-11-25T03:40:46;31.77;;;14.20;;
54977;SDS011;40873;47.522;19.106;2022-11-25T03:43:13;35.35;;;14.65;;
54977;SDS011;40873;47.522;19.106;2022-11-25T03:45:40;33.20;;;14.52;;
54977;SDS011;40873;47.522;19.106;2022-11-25T03:48:07;28.92;;;13.82;;
54977;SDS011;40873;47.522;19.106;2022-11-25T03:50:34;35.60;;;14.43;;
54977;SDS011;40873;47.522;19.106;2022-11-25T03:53:01;27.02;;;13.45;;
54977;SDS011;40873;47.522;19.106;2022-11-25T03:55:28;32.55;;;13.75;;
54977;SDS011;40873;47.522;19.106;2022-11-25T03:57:55;35.55;;;15.30;;
54977;SDS011;40873;47.522;19.106;2022-11-25T04:00:22;31.95;;;14.65;;
54977;SDS011;40873;47.522;19.106;2022-11-25T04:02:49;30.40;;;14.25;;
54977;SDS011;40873;47.522;19.106;2022-11-25T04:05:16;29.90;;;13.90;;
54977;SDS011;40873;47.522;19.106;2022-11-25T04:07:43;26.27;;;11.55;;
54977;SDS011;40873;47.522;19.106;2022-11-25T04:10:10;34.92;;;14.05;;
54977;SDS011;40873;47.522;19.106;2022-11-25T04:12:38;33.97;;;13.73;;
54977;SDS011;40873;47.522;19.106;2022-11-25T04:15:14;27.73;;;12.35;;
54977;SDS011;40873;47.522;19.106;2022-11-25T04:17:42;27.70;;;12.73;;
54977;SDS011;40873;47.522;19.106;2022-11-25T04:20:09;30.13;;;12.52;;
54977;SDS011;40873;47.522;19.106;2022-11-25T04:22:37;28.52;;;12.57;;
54977;SDS011;40873;47.522;19.106;2022-11-25T04:25:04;29.77;;;13.73;;
54977;SDS011;40873;47.522;19.106;2022-11-25T04:27:32;27.00;;;12.73;;
54977;SDS011;40873;47.522;19.106;2022-11-25T04:29:59;33.85;;;12.70;;
54977;SDS011;40873;47.522;19.106;2022-11-25T04:32:26;27.42;;;11.55;;
54977;SDS011;40873;47.522;19.106;2022-11-25T04:34:53;27.67;;;13.02;;
54977;SDS011;40873;47.522;19.106;2022-11-25T04:37:20;31.63;;;11.88;;
54977;SDS011;40873;47.522;19.106;2022-11-25T04:39:47;35.33;;;13.52;;
54977;SDS011;40873;47.522;19.106;2022-11-25T04:42:14;33.42;;;12.55;;
54977;SDS011;40873;47.522;19.106;2022-11-25T04:45:00;24.63;;;11.32;;
54977;SDS011;40873;47.522;19.106;2022-11-25T04:47:49;28.38;;;11.90;;
54977;SDS011;40873;47.522;19.106;2022-11-25T04:50:17;33.13;;;13.23;;
54977;SDS011;40873;47.522;19.106;2022-11-25T04:52:46;33.22;;;12.80;;
54977;SDS011;40873;47.522;19.106;2022-11-25T04:55:13;33.88;;;13.05;;
54977;SDS011;40873;47.522;19.106;2022-11-25T04:57:40;31.33;;;12.70;;
54977;SDS011;40873;47.522;19.106;2022-11-25T05:00:07;33.78;;;12.15;;
54977;SDS011;40873;47.522;19.106;2022-11-25T05:02:35;39.35;;;14.80;;
54977;SDS011;40873;47.522;19.106;2022-11-25T05:05:03;30.30;;;12.77;;
54977;SDS011;40873;47.522;19.106;2022-11-25T05:07:30;33.33;;;14.05;;
54977;SDS011;40873;47.522;19.106;2022-11-25T05:09:57;31.88;;;11.88;;
54977;SDS011;40873;47.522;19.106;2022-11-25T05:12:26;30.33;;;12.52;;
54977;SDS011;40873;47.522;19.106;2022-11-25T05:14:55;31.10;;;11.65;;
54977;SDS011;40873;47.522;19.106;2022-11-25T05:17:23;31.90;;;11.95;;
54977;SDS011;40873;47.522;19.106;2022-11-25T05:19:52;33.95;;;13.55;;
54977;SDS011;40873;47.522;19.106;2022-11-25T05:22:20;29.60;;;12.65;;
54977;SDS011;40873;47.522;19.106;2022-11-25T05:24:49;30.13;;;13.23;;
54977;SDS011;40873;47.522;19.106;2022-11-25T05:27:16;25.52;;;11.70;;
54977;SDS011;40873;47.522;19.106;2022-11-25T05:29:44;29.38;;;12.85;;
54977;SDS011;40873;47.522;19.106;2022-11-25T05:32:11;37.70;;;13.40;;
54977;SDS011;40873;47.522;19.106;2022-11-25T05:34:39;32.50;;;13.20;;
54977;SDS011;40873;47.522;19.106;2022-11-25T05:37:07;32.95;;;12.68;;
54977;SDS011;40873;47.522;19.106;2022-11-25T05:39:35;27.50;;;11.48;;
54977;SDS011;40873;47.522;19.106;2022-11-25T05:42:02;29.98;;;12.20;;
54977;SDS011;40873;47.522;19.106;2022-11-25T05:44:29;29.50;;;12.77;;
54977;SDS011;40873;47.522;19.106;2022-11-25T05:46:56;30.50;;;13.02;;
54977;SDS011;40873;47.522;19.106;2022-11-25T05:49:22;33.30;;;13.60;;
54977;SDS011;40873;47.522;19.106;2022-11-25T05:51:50;31.58;;;12.50;;
54977;SDS011;40873;47.522;19.106;2022-11-25T05:54:16;30.10;;;12.98;;
54977;SDS011;40873;47.522;19.106;2022-11-25T05:56:43;35.60;;;13.80;;
54977;SDS011;40873;47.522;19.106;2022-11-25T05:59:10;29.67;;;12.35;;
54977;SDS011;40873;47.522;19.106;2022-11-25T06:01:37;29.95;;;13.40;;
54977;SDS011;40873;47.522;19.106;2022-11-25T06:04:04;33.08;;;13.52;;
54977;SDS011;40873;47.522;19.106;2022-11-25T06:06:31;34.78;;;15.10;;
54977;SDS011;40873;47.522;19.106;2022-11-25T06:08:58;30.13;;;13.60;;
54977;SDS011;40873;47.522;19.106;2022-11-25T06:11:26;33.45;;;15.13;;
54977;SDS011;40873;47.522;19.106;2022-11-25T06:13:54;30.85;;;13.38;;
54977;SDS011;40873;47.522;19.106;2022-11-25T06:16:22;33.30;;;13.75;;
54977;SDS011;40873;47.522;19.106;2022-11-25T06:18:50;33.65;;;15.43;;
54977;SDS011;40873;47.522;19.106;2022-11-25T06:21:17;31.55;;;13.57;;
54977;SDS011;40873;47.522;19.106;2022-11-25T06:23:44;33.85;;;14.52;;
54977;SDS011;40873;47.522;19.106;2022-11-25T06:26:13;33.55;;;15.23;;
54977;SDS011;40873;47.522;19.106;2022-11-25T06:28:40;32.38;;;13.90;;
54977;SDS011;40873;47.522;19.106;2022-11-25T06:31:14;33.70;;;13.55;;
54977;SDS011;40873;47.522;19.106;2022-11-25T06:33:47;31.90;;;13.75;;
54977;SDS011;40873;47.522;19.106;2022-11-25T06:36:15;37.65;;;14.10;;
54977;SDS011;40873;47.522;19.106;2022-11-25T06:38:43;32.65;;;15.65;;
54977;SDS011;40873;47.522;19.106;2022-11-25T06:41:12;31.58;;;14.95;;
54977;SDS011;40873;47.522;19.106;2022-11-25T06:43:38;32.60;;;15.80;;
54977;SDS011;40873;47.522;19.106;2022-11-25T06:46:15;32.75;;;15.02;;
54977;SDS011;40873;47.522;19.106;2022-11-25T06:48:51;36.00;;;15.90;;
54977;SDS011;40873;47.522;19.106;2022-11-25T06:51:18;34.28;;;15.60;;
54977;SDS011;40873;47.522;19.106;2022-11-25T06:53:45;41.83;;;16.67;;
54977;SDS011;40873;47.522;19.106;2022-11-25T06:56:14;46.40;;;17.30;;
54977;SDS011;40873;47.522;19.106;2022-11-25T07:04:07;30.92;;;16.92;;
54977;SDS011;40873;47.522;19.106;2022-11-25T07:06:34;34.67;;;14.88;;
54977;SDS011;40873;47.522;19.106;2022-11-25T07:09:01;38.40;;;15.75;;
54977;SDS011;40873;47.522;19.106;2022-11-25T07:11:33;39.33;;;15.02;;
54977;SDS011;40873;47.522;19.106;2022-11-25T07:14:06;38.65;;;15.77;;
54977;SDS011;40873;47.522;19.106;2022-11-25T07:16:36;41.17;;;17.77;;
54977;SDS011;40873;47.522;19.106;2022-11-25T07:19:05;46.40;;;18.67;;
54977;SDS011;40873;47.522;19.106;2022-11-25T07:21:33;39.80;;;19.15;;
54977;SDS011;40873;47.522;19.106;2022-11-25T07:24:02;39.83;;;17.33;;
54977;SDS011;40873;47.522;19.106;2022-11-25T07:26:35;43.60;;;16.92;;
54977;SDS011;40873;47.522;19.106;2022-11-25T07:29:04;38.50;;;18.00;;
54977;SDS011;40873;47.522;19.106;2022-11-25T07:31:53;47.80;;;18.58;;
54977;SDS011;40873;47.522;19.106;2022-11-25T07:34:20;36.25;;;16.00;;
54977;SDS011;40873;47.522;19.106;2022-11-25T07:36:48;42.63;;;17.48;;
54977;SDS011;40873;47.522;19.106;2022-11-25T07:39:18;46.15;;;19.42;;
54977;SDS011;40873;47.522;19.106;2022-11-25T07:41:50;40.55;;;17.98;;
54977;SDS011;40873;47.522;19.106;2022-11-25T07:44:18;40.53;;;17.88;;
54977;SDS011;40873;47.522;19.106;2022-11-25T07:46:47;36.17;;;18.48;;
54977;SDS011;40873;47.522;19.106;2022-11-25T07:49:19;36.55;;;16.13;;
54977;SDS011;40873;47.522;19.106;2022-11-25T07:51:51;45.63;;;17.77;;
54977;SDS011;40873;47.522;19.106;2022-11-25T07:54:23;35.28;;;16.33;;
54977;SDS011;40873;47.522;19.106;2022-11-25T07:56:50;37.45;;;15.70;;
54977;SDS011;40873;47.522;19.106;2022-11-25T07:59:18;31.35;;;14.07;;
54977;SDS011;40873;47.522;19.106;2022-11-25T08:01:49;39.03;;;15.98;;
54977;SDS011;40873;47.522;19.106;2022-11-25T08:04:20;36.13;;;16.27;;
54977;SDS011;40873;47.522;19.106;2022-11-25T08:06:49;33.50;;;14.82;;
54977;SDS011;40873;47.522;19.106;2022-11-25T08:09:18;34.38;;;15.68;;
54977;SDS011;40873;47.522;19.106;2022-11-25T08:11:48;36.58;;;15.90;;
54977;SDS011;40873;47.522;19.106;2022-11-25T08:14:15;40.20;;;15.32;;
54977;SDS011;40873;47.522;19.106;2022-11-25T08:16:42;41.53;;;15.80;;
54977;SDS011;40873;47.522;19.106;2022-11-25T08:19:11;39.88;;;17.25;;
54977;SDS011;40873;47.522;19.106;2022-11-25T08:21:40;36.92;;;16.73;;
54977;SDS011;40873;47.522;19.106;2022-11-25T08:24:09;34.67;;;14.32;;
54977;SDS011;40873;47.522;19.106;2022-11-25T08:26:41;33.72;;;14.45;;
54977;SDS011;40873;47.522;19.106;2022-11-25T08:29:10;34.80;;;15.35;;
54977;SDS011;40873;47.522;19.106;2022-11-25T08:31:39;29.98;;;14.10;;
54977;SDS011;40873;47.522;19.106;2022-11-25T08:34:08;39.17;;;14.88;;
54977;SDS011;40873;47.522;19.106;2022-11-25T08:36:42;32.10;;;14.95;;
54977;SDS011;40873;47.522;19.106;2022-11-25T08:39:14;31.92;;;13.52;;
54977;SDS011;40873;47.522;19.106;2022-11-25T08:42:01;33.17;;;15.07;;
54977;SDS011;40873;47.522;19.106;2022-11-25T08:44:29;35.30;;;15.07;;
54977;SDS011;40873;47.522;19.106;2022-11-25T08:46:56;34.80;;;14.63;;
54977;SDS011;40873;47.522;19.106;2022-11-25T08:49:24;32.45;;;13.95;;
54977;SDS011;40873;47.522;19.106;2022-11-25T08:51:52;34.97;;;15.75;;
54977;SDS011;40873;47.522;19.106;2022-11-25T08:54:19;33.20;;;14.30;;
54977;SDS011;40873;47.522;19.106;2022-11-25T08:56:46;33.85;;;14.63;;
54977;SDS011;40873;47.522;19.106;2022-11-25T08:59:13;36.65;;;15.68;;
54977;SDS011;40873;47.522;19.106;2022-11-25T09:01:40;25.75;;;12.82;;
54977;SDS011;40873;47.522;19.106;2022-11-25T09:04:07;30.90;;;13.00;;
54977;SDS011;40873;47.522;19.106;2022-11-25T09:06:34;27.48;;;11.60;;
54977;SDS011;40873;47.522;19.106;2022-11-25T09:09:01;30.45;;;12.35;;
54977;SDS011;40873;47.522;19.106;2022-11-25T09:11:28;29.38;;;12.45;;
54977;SDS011;40873;47.522;19.106;2022-11-25T09:13:55;29.88;;;12.88;;
54977;SDS011;40873;47.522;19.106;2022-11-25T09:16:24;26.92;;;12.30;;
54977;SDS011;40873;47.522;19.106;2022-11-25T09:18:52;27.75;;;12.88;;
54977;SDS011;40873;47.522;19.106;2022-11-25T09:21:25;25.30;;;11.73;;
54977;SDS011;40873;47.522;19.106;2022-11-25T09:23:52;21.90;;;10.93;;
54977;SDS011;40873;47.522;19.106;2022-11-25T09:26:21;26.67;;;11.85;;
54977;SDS011;40873;47.522;19.106;2022-11-25T09:28:51;27.52;;;11.60;;
54977;SDS011;40873;47.522;19.106;2022-11-25T09:31:19;22.67;;;10.52;;
54977;SDS011;40873;47.522;19.106;2022-11-25T09:33:47;26.95;;;11.55;;
54977;SDS011;40873;47.522;19.106;2022-11-25T09:36:15;24.13;;;11.68;;
54977;SDS011;40873;47.522;19.106;2022-11-25T09:38:42;24.00;;;11.25;;
54977;SDS011;40873;47.522;19.106;2022-11-25T09:49:56;29.70;;;11.55;;
54977;SDS011;40873;47.522;19.106;2022-11-25T09:55:19;21.77;;;11.30;;
54977;SDS011;40873;47.522;19.106;2022-11-25T10:00:44;19.08;;;10.00;;
54977;SDS011;40873;47.522;19.106;2022-11-25T10:08:34;21.40;;;10.73;;
54977;SDS011;40873;47.522;19.106;2022-11-25T10:11:16;18.05;;;9.27;;
54977;SDS011;40873;47.522;19.106;2022-11-25T10:14:00;20.67;;;10.90;;
54977;SDS011;40873;47.522;19.106;2022-11-25T10:16:48;24.58;;;10.77;;
54977;SDS011;40873;47.522;19.106;2022-11-25T10:21:55;23.02;;;9.65;;
54977;SDS011;40873;47.522;19.106;2022-11-25T10:24:22;33.80;;;10.20;;
54977;SDS011;40873;47.522;19.106;2022-11-25T10:26:56;20.63;;;9.18;;
54977;SDS011;40873;47.522;19.106;2022-11-25T10:29:28;19.58;;;9.50;;
54977;SDS011;40873;47.522;19.106;2022-11-25T10:31:58;21.08;;;10.68;;
54977;SDS011;40873;47.522;19.106;2022-11-25T10:34:39;20.90;;;10.90;;
54977;SDS011;40873;47.522;19.106;2022-11-25T10:37:12;22.40;;;9.77;;
54977;SDS011;40873;47.522;19.106;2022-11-25T10:39:45;21.27;;;10.40;;
54977;SDS011;40873;47.522;19.106;2022-11-25T10:42:22;23.70;;;10.65;;
54977;SDS011;40873;47.522;19.106;2022-11-25T10:44:52;23.48;;;10.95;;
54977;SDS011;40873;47.522;19.106;2022-11-25T10:55:17;26.67;;;11.55;;
54977;SDS011;40873;47.522;19.106;2022-11-25T11:00:23;29.63;;;14.10;;
54977;SDS011;40873;47.522;19.106;2022-11-25T11:02:54;28.85;;;13.98;;
54977;SDS011;40873;47.522;19.106;2022-11-25T11:05:27;32.75;;;15.20;;
54977;SDS011;40873;47.522;19.106;2022-11-25T11:08:12;34.10;;;16.15;;
54977;SDS011;40873;47.522;19.106;2022-11-25T11:10:43;32.70;;;15.70;;
54977;SDS011;40873;47.522;19.106;2022-11-25T11:15:47;32.38;;;16.50;;
54977;SDS011;40873;47.522;19.106;2022-11-25T11:20:53;34.72;;;15.07;;
54977;SDS011;40873;47.522;19.106;2022-11-25T11:23:23;36.13;;;16.58;;
54977;SDS011;40873;47.522;19.106;2022-11-25T11:25:55;37.08;;;16.77;;
54977;SDS011;40873;47.522;19.106;2022-11-25T11:31:07;34.45;;;15.25;;
54977;SDS011;40873;47.522;19.106;2022-11-25T11:50:44;31.63;;;13.15;;
54977;SDS011;40873;47.522;19.106;2022-11-25T12:05:05;26.50;;;12.40;;
54977;SDS011;40873;47.522;19.106;2022-11-25T12:13:26;25.42;;;12.43;;
54977;SDS011;40873;47.522;19.106;2022-11-25T12:15:57;28.95;;;12.27;;
54977;SDS011;40873;47.522;19.106;2022-11-25T12:18:38;31.92;;;13.05;;
54977;SDS011;40873;47.522;19.106;2022-11-25T12:26:42;27.75;;;11.60;;
54977;SDS011;40873;47.522;19.106;2022-11-25T12:29:32;25.42;;;11.18;;
54977;SDS011;40873;47.522;19.106;2022-11-25T12:32:17;27.75;;;13.23;;
54977;SDS011;40873;47.522;19.106;2022-11-25T12:40:36;34.47;;;13.40;;
54977;SDS011;40873;47.522;19.106;2022-11-25T12:45:54;23.52;;;12.93;;
54977;SDS011;40873;47.522;19.106;2022-11-25T12:48:31;27.23;;;12.50;;
54977;SDS011;40873;47.522;19.106;2022-11-25T13:00:09;23.75;;;11.88;;
54977;SDS011;40873;47.522;19.106;2022-11-25T13:03:21;33.67;;;13.07;;
54977;SDS011;40873;47.522;19.106;2022-11-25T13:17:11;26.85;;;12.05;;
54977;SDS011;40873;47.522;19.106;2022-11-25T13:19:41;26.88;;;12.75;;
54977;SDS011;40873;47.522;19.106;2022-11-25T13:24:46;28.10;;;12.20;;
54977;SDS011;40873;47.522;19.106;2022-11-25T13:27:32;28.63;;;12.38;;
54977;SDS011;40873;47.522;19.106;2022-11-25T13:32:58;24.08;;;9.88;;
54977;SDS011;40873;47.522;19.106;2022-11-25T13:38:33;23.23;;;10.45;;
54977;SDS011;40873;47.522;19.106;2022-11-25T13:41:19;21.02;;;9.30;;
54977;SDS011;40873;47.522;19.106;2022-11-25T13:43:59;20.85;;;8.80;;
54977;SDS011;40873;47.522;19.106;2022-11-25T13:51:59;19.75;;;7.95;;
54977;SDS011;40873;47.522;19.106;2022-11-25T13:54:42;14.88;;;8.18;;
54977;SDS011;40873;47.522;19.106;2022-11-25T13:59:58;16.52;;;7.40;;
54977;SDS011;40873;47.522;19.106;2022-11-25T14:02:34;15.73;;;6.88;;
54977;SDS011;40873;47.522;19.106;2022-11-25T14:27:03;13.95;;;7.22;;
54977;SDS011;40873;47.522;19.106;2022-11-25T14:32:37;16.98;;;7.43;;
54977;SDS011;40873;47.522;19.106;2022-11-25T14:35:12;18.17;;;7.43;;
54977;SDS011;40873;47.522;19.106;2022-11-25T14:40:11;17.52;;;7.07;;
54977;SDS011;40873;47.522;19.106;2022-11-25T14:42:51;17.55;;;7.78;;
54977;SDS011;40873;47.522;19.106;2022-11-25T14:47:55;15.68;;;7.28;;
54977;SDS011;40873;47.522;19.106;2022-11-25T14:50:22;21.67;;;8.43;;
54977;SDS011;40873;47.522;19.106;2022-11-25T14:53:09;22.10;;;9.40;;
54977;SDS011;40873;47.522;19.106;2022-11-25T14:55:36;18.02;;;8.10;;
54977;SDS011;40873;47.522;19.106;2022-11-25T14:58:03;14.43;;;7.78;;
54977;SDS011;40873;47.522;19.106;2022-11-25T15:00:30;14.00;;;7.38;;
54977;SDS011;40873;47.522;19.106;2022-11-25T15:03:01;17.60;;;6.97;;
54977;SDS011;40873;47.522;19.106;2022-11-25T15:13:08;28.73;;;12.73;;
54977;SDS011;40873;47.522;19.106;2022-11-25T15:18:06;32.40;;;12.93;;
54977;SDS011;40873;47.522;19.106;2022-11-25T15:23:07;32.22;;;13.60;;
54977;SDS011;40873;47.522;19.106;2022-11-25T15:25:52;29.85;;;14.15;;
54977;SDS011;40873;47.522;19.106;2022-11-25T15:28:20;45.45;;;24.35;;
54977;SDS011;40873;47.522;19.106;2022-11-25T15:30:57;36.55;;;19.90;;
54977;SDS011;40873;47.522;19.106;2022-11-25T15:33:28;36.70;;;16.05;;
54977;SDS011;40873;47.522;19.106;2022-11-25T15:35:55;34.60;;;14.93;;
54977;SDS011;40873;47.522;19.106;2022-11-25T15:43:49;35.15;;;16.10;;
54977;SDS011;40873;47.522;19.106;2022-11-25T15:46:19;44.00;;;17.83;;
54977;SDS011;40873;47.522;19.106;2022-11-25T15:48:48;38.88;;;16.95;;
54977;SDS011;40873;47.522;19.106;2022-11-25T15:54:01;39.22;;;16.77;;
54977;SDS011;40873;47.522;19.106;2022-11-25T15:56:50;45.60;;;18.42;;
54977;SDS011;40873;47.522;19.106;2022-11-25T15:59:44;42.75;;;19.73;;
54977;SDS011;40873;47.522;19.106;2022-11-25T16:02:34;47.10;;;21.95;;
54977;SDS011;40873;47.522;19.106;2022-11-25T16:05:34;44.67;;;19.08;;
54977;SDS011;40873;47.522;19.106;2022-11-25T16:08:00;38.35;;;19.58;;
54977;SDS011;40873;47.522;19.106;2022-11-25T16:10:50;35.60;;;19.33;;
54977;SDS011;40873;47.522;19.106;2022-11-25T16:15:53;42.17;;;18.70;;
54977;SDS011;40873;47.522;19.106;2022-11-25T16:18:26;45.90;;;20.35;;
54977;SDS011;40873;47.522;19.106;2022-11-25T16:21:07;36.65;;;17.88;;
54977;SDS011;40873;47.522;19.106;2022-11-25T16:23:41;41.03;;;19.35;;
54977;SDS011;40873;47.522;19.106;2022-11-25T16:26:13;39.95;;;19.00;;
54977;SDS011;40873;47.522;19.106;2022-11-25T16:28:48;45.88;;;20.23;;
54977;SDS011;40873;47.522;19.106;2022-11-25T16:31:21;39.80;;;17.25;;
54977;SDS011;40873;47.522;19.106;2022-11-25T16:33:49;39.25;;;18.05;;
54977;SDS011;40873;47.522;19.106;2022-11-25T16:36:19;41.47;;;18.85;;
54977;SDS011;40873;47.522;19.106;2022-11-25T16:38:49;42.17;;;18.95;;
54977;SDS011;40873;47.522;19.106;2022-11-25T16:41:24;48.83;;;21.20;;
54977;SDS011;40873;47.522;19.106;2022-11-25T16:43:52;40.83;;;20.25;;
54977;SDS011;40873;47.522;19.106;2022-11-25T16:46:25;41.50;;;18.58;;
54977;SDS011;40873;47.522;19.106;2022-11-25T16:48:52;41.05;;;17.95;;
54977;SDS011;40873;47.522;19.106;2022-11-25T16:51:20;42.83;;;18.13;;
54977;SDS011;40873;47.522;19.106;2022-11-25T16:53:49;42.97;;;18.60;;
54977;SDS011;40873;47.522;19.106;2022-11-25T16:56:18;43.90;;;18.40;;
54977;SDS011;40873;47.522;19.106;2022-11-25T16:58:50;36.63;;;18.80;;
54977;SDS011;40873;47.522;19.106;2022-11-25T17:01:17;39.88;;;17.92;;
54977;SDS011;40873;47.522;19.106;2022-11-25T17:03:46;39.22;;;17.50;;
54977;SDS011;40873;47.522;19.106;2022-11-25T17:06:14;39.33;;;19.08;;
54977;SDS011;40873;47.522;19.106;2022-11-25T17:08:48;43.70;;;18.80;;
54977;SDS011;40873;47.522;19.106;2022-11-25T17:11:25;44.38;;;20.35;;
54977;SDS011;40873;47.522;19.106;2022-11-25T17:13:55;41.08;;;19.55;;
54977;SDS011;40873;47.522;19.106;2022-11-25T17:16:26;39.65;;;19.73;;
54977;SDS011;40873;47.522;19.106;2022-11-25T17:18:55;35.83;;;17.73;;
54977;SDS011;40873;47.522;19.106;2022-11-25T17:21:25;40.35;;;18.90;;
54977;SDS011;40873;47.522;19.106;2022-11-25T17:23:57;44.00;;;19.88;;
54977;SDS011;40873;47.522;19.106;2022-11-25T17:26:34;43.17;;;19.83;;
54977;SDS011;40873;47.522;19.106;2022-11-25T17:29:03;43.28;;;18.63;;
54977;SDS011;40873;47.522;19.106;2022-11-25T17:31:33;49.35;;;18.60;;
54977;SDS011;40873;47.522;19.106;2022-11-25T17:34:04;42.60;;;18.92;;
54977;SDS011;40873;47.522;19.106;2022-11-25T17:36:31;46.40;;;18.70;;
54977;SDS011;40873;47.522;19.106;2022-11-25T17:38:59;42.35;;;19.08;;
54977;SDS011;40873;47.522;19.106;2022-11-25T17:41:26;44.65;;;20.60;;
54977;SDS011;40873;47.522;19.106;2022-11-25T17:43:54;41.97;;;20.08;;
54977;SDS011;40873;47.522;19.106;2022-11-25T17:46:21;44.20;;;19.55;;
54977;SDS011;40873;47.522;19.106;2022-11-25T17:48:50;47.78;;;20.38;;
54977;SDS011;40873;47.522;19.106;2022-11-25T17:51:17;46.47;;;19.50;;
54977;SDS011;40873;47.522;19.106;2022-11-25T17:53:44;44.83;;;20.70;;
54977;SDS011;40873;47.522;19.106;2022-11-25T17:56:26;40.55;;;19.77;;